Time;durP1;ratioP1;P1;durP2;ratioP2;P2;SDS_P1;SDS_P2;PMS_P1;PMS_P2;Temp;Humidity;BMP_temperature;BMP_pressure;BME280_temperature;BME280_humidity;BME280_pressure;Samples;Min_cycle;Max_cycle;Signal;HPM_P1;HPM_P2
2023/11/21 00:02:27;;;;;;;22.00;12.20;;;;;;;3.66;47.71;99707.05;108216;1251;72642;-68
2023/11/21 00:04:54;;;;;;;25.40;13.30;;;;;;;3.60;47.64;99704.00;108146;1252;61914;-68
2023/11/21 00:07:21;;;;;;;39.10;16.20;;;;;;;3.42;47.91;99705.16;108175;1255;60306;-67
2023/11/21 00:09:48;;;;;;;28.20;13.40;;;;;;;3.25;48.27;99701.05;108134;1253;73762;-67
2023/11/21 00:12:31;;;;;;;38.70;16.00;;;;;;;3.26;48.23;99697.21;108091;1253;68448;-67
2023/11/21 00:14:58;;;;;;;53.20;18.50;;;;;;;3.16;48.31;99702.04;108090;1253;71680;-67
2023/11/21 00:17:25;;;;;;;55.40;17.80;;;;;;;3.05;48.39;99706.70;108096;1253;61708;-67
2023/11/21 00:19:52;;;;;;;46.00;17.00;;;;;;;2.91;48.70;99708.44;108076;1253;60159;-67
2023/11/21 00:22:19;;;;;;;34.20;16.60;;;;;;;2.96;48.60;99697.64;108071;1257;73671;-67
2023/11/21 00:24:46;;;;;;;32.30;15.40;;;;;;;2.90;48.73;99697.36;108076;1253;69368;-67
2023/11/21 00:27:14;;;;;;;30.80;15.60;;;;;;;2.85;48.76;99700.38;108076;1253;71115;-67
2023/11/21 00:29:41;;;;;;;31.40;16.30;;;;;;;2.82;48.83;99703.70;108055;1253;62106;-67
2023/11/21 00:32:07;;;;;;;35.30;16.10;;;;;;;2.77;48.79;99704.27;108033;1253;60390;-66
2023/11/21 00:34:34;;;;;;;33.70;15.50;;;;;;;2.73;48.81;99703.80;108092;1253;73676;-67
2023/11/21 00:37:02;;;;;;;29.20;15.30;;;;;;;2.68;48.83;99700.40;108086;1253;67796;-67
2023/11/21 00:39:29;;;;;;;36.80;16.00;;;;;;;2.63;48.74;99703.73;108073;1253;72566;-66
2023/11/21 00:41:56;;;;;;;30.40;15.20;;;;;;;2.63;48.82;99709.64;108098;1253;60378;-67
2023/11/21 00:44:23;;;;;;;44.40;21.40;;;;;;;2.36;49.23;99713.56;108138;1253;60299;-67
2023/11/21 00:46:50;;;;;;;34.30;17.30;;;;;;;2.29;49.57;99711.21;108113;1253;72428;-67
2023/11/21 00:49:17;;;;;;;32.50;14.60;;;;;;;2.20;49.49;99712.52;108153;1253;68843;-67
2023/11/21 00:51:44;;;;;;;30.70;15.50;;;;;;;2.19;49.51;99714.26;108076;1253;72663;-66
2023/11/21 00:54:10;;;;;;;33.70;15.20;;;;;;;2.17;49.68;99713.06;108070;1253;61997;-67
2023/11/21 00:56:40;;;;;;;36.20;15.80;;;;;;;2.16;49.70;99716.70;108113;1253;60296;-66
2023/11/21 00:59:06;;;;;;;35.70;15.30;;;;;;;2.14;49.92;99721.06;108129;1253;73674;-67
2023/11/21 01:01:33;;;;;;;30.90;13.70;;;;;;;2.14;49.80;99727.65;108260;1255;70869;-67
2023/11/21 01:04:00;;;;;;;32.60;15.20;;;;;;;2.03;50.17;99737.43;108305;1251;72358;-67
2023/11/21 01:06:27;;;;;;;28.90;13.70;;;;;;;1.97;50.37;99744.06;108322;1251;60280;-66
2023/11/21 01:08:53;;;;;;;29.30;14.50;;;;;;;2.07;50.07;99745.89;108293;1251;60421;-67
2023/11/21 01:11:20;;;;;;;30.30;15.30;;;;;;;2.18;49.76;99741.28;108300;1255;73970;-67
2023/11/21 01:13:47;;;;;;;29.70;15.20;;;;;;;1.92;50.46;99744.44;108328;1256;70385;-66
2023/11/21 01:16:14;;;;;;;31.10;15.50;;;;;;;1.85;50.39;99739.14;108188;1251;72613;-66
2023/11/21 01:18:41;;;;;;;26.80;13.80;;;;;;;1.80;50.30;99736.91;108315;1251;61003;-67
2023/11/21 01:21:08;;;;;;;29.10;14.80;;;;;;;1.83;50.42;99740.20;108336;1251;60102;-67
2023/11/21 01:23:36;;;;;;;36.10;17.00;;;;;;;1.82;50.50;99745.91;108303;1251;72307;-66
2023/11/21 01:26:03;;;;;;;36.70;14.50;;;;;;;1.83;50.49;99748.17;108273;1251;69062;-67
2023/11/21 01:28:29;;;;;;;38.80;16.20;;;;;;;1.83;50.17;99748.33;108227;1251;72515;-66
2023/11/21 01:30:57;;;;;;;35.30;16.10;;;;;;;1.79;50.20;99743.52;108289;1251;60832;-67
2023/11/21 01:33:25;;;;;;;32.80;15.10;;;;;;;1.92;49.87;99745.65;108270;1251;60770;-66
2023/11/21 01:35:55;;;;;;;34.20;17.00;;;;;;;1.97;49.56;99743.73;108195;1251;74478;-66
2023/11/21 01:38:22;;;;;;;31.80;15.00;;;;;;;2.03;49.57;99736.77;108359;1251;70009;-67
2023/11/21 01:40:49;;;;;;;37.20;16.80;;;;;;;1.99;49.58;99735.22;108318;1251;72682;-66
2023/11/21 01:43:16;;;;;;;31.30;16.40;;;;;;;1.92;49.90;99738.75;108332;1251;62096;-67
2023/11/21 01:45:45;;;;;;;34.90;17.10;;;;;;;1.86;49.92;99737.91;108340;1251;60302;-66
2023/11/21 01:48:16;;;;;;;35.10;16.00;;;;;;;1.83;50.30;99738.47;108351;1251;74335;-66
2023/11/21 01:50:43;;;;;;;25.40;12.50;;;;;;;1.82;50.20;99742.61;108308;1251;70370;-67
2023/11/21 01:53:11;;;;;;;30.40;14.20;;;;;;;1.77;50.62;99742.84;108303;1251;73545;-67
2023/11/21 01:55:38;;;;;;;31.00;15.60;;;;;;;1.71;50.43;99740.12;108352;1251;61867;-67
2023/11/21 01:58:07;;;;;;;33.80;15.40;;;;;;;1.78;50.69;99738.66;108061;1253;60484;-66
2023/11/21 02:00:34;;;;;;;31.90;16.50;;;;;;;1.71;50.54;99739.42;108174;1253;73731;-66
2023/11/21 02:03:02;;;;;;;31.00;13.30;;;;;;;1.65;50.89;99742.75;108175;1253;70602;-66
2023/11/21 02:05:29;;;;;;;27.60;13.50;;;;;;;1.69;50.86;99747.05;108169;1253;72437;-66
2023/11/21 02:07:57;;;;;;;32.00;15.90;;;;;;;1.98;50.29;99755.66;108154;1253;61818;-66
2023/11/21 02:10:24;;;;;;;38.10;16.50;;;;;;;1.86;50.46;99757.83;108103;1253;60167;-67
2023/11/21 02:12:52;;;;;;;35.00;18.40;;;;;;;1.86;50.43;99762.16;108139;1252;73821;-67
2023/11/21 02:15:21;;;;;;;33.00;16.50;;;;;;;1.76;50.54;99761.70;108121;1253;70164;-67
2023/11/21 02:17:53;;;;;;;35.40;16.50;;;;;;;1.76;50.54;99761.71;108159;1253;73061;-67
2023/11/21 02:20:22;;;;;;;35.00;17.60;;;;;;;1.53;50.78;99767.06;108181;1253;62037;-67
2023/11/21 02:22:59;;;;;;;33.70;16.90;;;;;;;1.32;51.25;99772.36;108254;1256;60303;-67
2023/11/21 02:25:30;;;;;;;32.80;16.80;;;;;;;1.23;51.25;99775.17;108127;1253;72302;-67
2023/11/21 02:27:58;;;;;;;30.90;15.30;;;;;;;1.14;51.25;99772.10;108137;1253;70287;-67
2023/11/21 02:30:25;;;;;;;30.90;16.20;;;;;;;1.21;51.12;99769.83;108117;1253;73801;-67
2023/11/21 02:32:54;;;;;;;29.70;15.70;;;;;;;1.23;51.13;99769.98;108135;1253;61773;-69
2023/11/21 02:35:21;;;;;;;36.00;16.60;;;;;;;1.32;50.78;99769.08;108128;1253;60623;-67
2023/11/21 02:37:48;;;;;;;31.40;15.60;;;;;;;1.23;51.00;99772.73;108106;1256;73788;-67
2023/11/21 02:40:18;;;;;;;38.10;16.50;;;;;;;1.15;50.93;99772.27;108228;1253;70409;-67
2023/11/21 02:42:45;;;;;;;32.50;15.30;;;;;;;1.05;50.99;99768.67;108145;1253;72575;-67
2023/11/21 02:45:18;;;;;;;35.10;16.70;;;;;;;1.13;50.84;99774.18;108183;1253;61896;-67
2023/11/21 02:47:45;;;;;;;34.60;15.10;;;;;;;1.09;51.06;99776.79;108179;1253;59120;-67
2023/11/21 02:50:12;;;;;;;29.80;14.20;;;;;;;1.09;51.02;99775.58;108249;1253;73740;-67
2023/11/21 02:52:39;;;;;;;31.10;16.10;;;;;;;1.14;50.89;99776.08;108159;1253;70451;-67
2023/11/21 02:55:07;;;;;;;35.20;16.00;;;;;;;1.18;50.83;99778.66;108173;1253;73076;-67
2023/11/21 02:57:34;;;;;;;30.00;14.30;;;;;;;1.29;50.65;99778.43;108220;1253;61770;-67
2023/11/21 03:00:01;;;;;;;31.90;15.10;;;;;;;1.36;50.42;99781.52;108162;1251;60308;-67
2023/11/21 03:02:28;;;;;;;24.50;12.90;;;;;;;1.48;50.14;99784.73;108236;1251;73710;-67
2023/11/21 03:04:55;;;;;;;31.90;14.80;;;;;;;1.52;50.33;99787.48;108232;1251;70258;-67
2023/11/21 03:07:22;;;;;;;33.90;16.60;;;;;;;1.59;49.93;99791.60;108278;1251;58863;-67
2023/11/21 03:09:48;;;;;;;30.90;16.10;;;;;;;1.50;50.27;99788.70;108167;1251;62077;-66
2023/11/21 03:12:15;;;;;;;28.40;16.40;;;;;;;1.38;50.52;99793.60;108244;1251;60332;-66
2023/11/21 03:14:42;;;;;;;29.30;15.50;;;;;;;1.38;50.69;99799.67;108237;1251;74550;-66
2023/11/21 03:17:09;;;;;;;31.50;15.70;;;;;;;1.40;50.37;99799.30;108328;1251;70349;-66
2023/11/21 03:19:35;;;;;;;27.60;15.50;;;;;;;1.43;50.32;99802.41;108344;1251;73083;-66
2023/11/21 03:22:04;;;;;;;31.10;15.00;;;;;;;1.38;50.34;99806.92;108318;1251;62317;-66
2023/11/21 03:24:30;;;;;;;32.70;17.00;;;;;;;1.36;50.39;99802.43;108189;1256;60465;-67
2023/11/21 03:26:57;;;;;;;32.70;15.30;;;;;;;1.34;50.34;99804.00;108283;1251;73856;-67
2023/11/21 03:29:25;;;;;;;35.50;16.70;;;;;;;1.22;50.20;99796.63;108281;1256;70300;-67
2023/11/21 03:31:51;;;;;;;32.50;16.90;;;;;;;1.21;50.18;99795.23;108287;1251;72726;-68
2023/11/21 03:34:27;;;;;;;33.20;16.00;;;;;;;1.19;50.05;99793.86;108253;1251;62060;-66
2023/11/21 03:36:54;;;;;;;34.40;16.40;;;;;;;1.11;50.05;99790.80;108231;1253;60386;-67
2023/11/21 03:39:22;;;;;;;30.60;16.90;;;;;;;1.09;49.92;99794.25;108243;1256;73640;-67
2023/11/21 03:41:49;;;;;;;35.10;16.50;;;;;;;1.10;49.96;99801.34;108257;1256;70268;-66
2023/11/21 03:44:15;;;;;;;34.40;16.00;;;;;;;1.06;49.82;99800.13;108188;1256;72698;-67
2023/11/21 03:46:43;;;;;;;34.60;16.70;;;;;;;0.96;49.92;99798.79;108213;1251;61945;-67
2023/11/21 03:49:10;;;;;;;32.30;16.10;;;;;;;0.94;49.97;99804.51;108102;1256;60280;-67
2023/11/21 03:51:37;;;;;;;32.80;17.40;;;;;;;0.94;49.88;99806.06;108218;1251;74152;-67
2023/11/21 03:54:04;;;;;;;38.00;17.60;;;;;;;0.93;49.94;99808.14;108292;1257;69015;-66
2023/11/21 03:56:31;;;;;;;33.20;16.70;;;;;;;0.93;50.08;99809.87;108260;1256;72399;-66
2023/11/21 03:58:57;;;;;;;36.00;17.10;;;;;;;0.81;50.35;99810.24;108281;1251;60373;-67
2023/11/21 04:01:24;;;;;;;31.40;16.30;;;;;;;0.77;50.32;99809.91;108214;1253;60852;-67
2023/11/21 04:03:51;;;;;;;38.40;17.40;;;;;;;0.81;50.21;99807.83;108181;1256;73755;-67
2023/11/21 04:06:18;;;;;;;36.30;17.80;;;;;;;0.74;50.35;99800.75;108109;1257;70330;-67
2023/11/21 04:08:45;;;;;;;33.20;16.20;;;;;;;0.65;50.77;99801.47;108173;1253;72714;-67
2023/11/21 04:11:12;;;;;;;33.70;16.70;;;;;;;0.70;50.50;99801.45;108194;1255;60605;-67
2023/11/21 04:13:39;;;;;;;31.30;15.80;;;;;;;0.69;50.40;99798.88;108184;1253;60428;-67
2023/11/21 04:16:07;;;;;;;36.30;16.00;;;;;;;0.70;50.37;99802.84;108216;1254;74156;-67
2023/11/21 04:18:37;;;;;;;25.50;13.00;;;;;;;0.72;50.41;99810.44;108172;1253;70420;-67
2023/11/21 04:21:05;;;;;;;34.80;15.10;;;;;;;0.72;50.39;99813.89;108157;1253;72560;-67
2023/11/21 04:23:32;;;;;;;34.80;17.10;;;;;;;0.83;50.16;99814.05;108300;1256;61729;-67
2023/11/21 04:25:58;;;;;;;33.80;16.10;;;;;;;0.86;50.08;99816.64;108188;1254;60540;-67
2023/11/21 04:28:25;;;;;;;34.50;17.00;;;;;;;0.81;49.90;99819.91;108172;1256;73818;-67
2023/11/21 04:30:52;;;;;;;29.00;14.30;;;;;;;0.74;50.10;99823.56;108233;1254;70353;-67
2023/11/21 04:33:19;;;;;;;25.20;13.80;;;;;;;0.77;50.21;99824.95;108194;1255;72527;-67
2023/11/21 04:35:46;;;;;;;33.90;15.50;;;;;;;0.87;49.66;99833.39;108179;1255;59297;-67
2023/11/21 04:38:12;;;;;;;32.30;16.70;;;;;;;0.94;49.56;99837.02;108179;1254;60319;-67
2023/11/21 04:40:39;;;;;;;36.10;16.30;;;;;;;0.97;49.64;99840.27;108151;1255;73927;-67
2023/11/21 04:43:06;;;;;;;31.50;15.10;;;;;;;0.97;49.62;99841.83;108132;1256;68930;-67
2023/11/21 04:45:32;;;;;;;32.20;15.90;;;;;;;0.99;49.54;99840.79;108153;1254;72701;-67
2023/11/21 04:47:59;;;;;;;35.00;17.50;;;;;;;0.92;49.69;99840.98;108150;1257;60268;-67
2023/11/21 04:50:28;;;;;;;32.90;15.60;;;;;;;0.82;49.84;99842.05;108156;1255;60445;-66
2023/11/21 04:52:55;;;;;;;37.20;17.40;;;;;;;0.80;49.67;99842.39;108148;1253;73808;-68
2023/11/21 04:55:22;;;;;;;38.30;17.20;;;;;;;0.80;49.42;99847.75;108153;1254;70283;-66
2023/11/21 04:57:48;;;;;;;30.60;15.80;;;;;;;0.72;49.73;99850.87;108150;1256;72561;-67
2023/11/21 05:00:15;;;;;;;38.20;16.90;;;;;;;0.68;49.73;99855.20;108174;1254;61853;-67
2023/11/21 05:02:43;;;;;;;27.90;14.80;;;;;;;0.58;49.92;99861.26;108331;1251;60402;-67
2023/11/21 05:05:11;;;;;;;29.40;15.30;;;;;;;0.62;49.87;99861.60;108334;1256;73940;-67
2023/11/21 05:07:39;;;;;;;36.60;17.50;;;;;;;0.69;49.71;99865.91;108303;1254;70560;-67
2023/11/21 05:10:12;;;;;;;32.10;15.00;;;;;;;0.63;49.74;99865.23;108293;1251;72971;-67
2023/11/21 05:12:39;;;;;;;35.00;16.90;;;;;;;0.67;49.86;99871.79;108340;1251;61788;-67
2023/11/21 05:15:09;;;;;;;34.40;16.30;;;;;;;0.63;49.74;99871.61;108329;1251;60437;-67
2023/11/21 05:17:38;;;;;;;33.50;17.00;;;;;;;0.65;49.92;99875.94;108197;1252;72393;-66
2023/11/21 05:20:08;;;;;;;32.30;15.70;;;;;;;0.61;49.66;99880.09;108290;1255;69196;-67
2023/11/21 05:22:35;;;;;;;30.80;15.70;;;;;;;0.57;49.77;99888.73;108255;1256;72679;-67
2023/11/21 05:25:03;;;;;;;36.60;16.10;;;;;;;0.64;49.78;99889.06;108204;1251;62058;-67
2023/11/21 05:27:30;;;;;;;31.70;16.00;;;;;;;0.44;50.27;99905.65;108282;1251;60486;-67
2023/11/21 05:29:57;;;;;;;30.80;14.50;;;;;;;0.44;50.66;99908.58;108262;1251;73830;-67
2023/11/21 05:32:24;;;;;;;34.00;16.40;;;;;;;0.52;50.61;99909.63;108274;1254;69053;-67
2023/11/21 05:34:52;;;;;;;32.90;16.40;;;;;;;0.57;50.56;99907.38;108278;1255;73699;-66
2023/11/21 05:37:18;;;;;;;39.00;18.90;;;;;;;0.72;50.55;99908.42;108279;1251;60459;-67
2023/11/21 05:39:46;;;;;;;40.80;19.50;;;;;;;0.60;50.75;99909.97;108323;1252;60295;-67
2023/11/21 05:42:13;;;;;;;42.50;18.20;;;;;;;0.75;50.84;99911.87;108295;1251;73641;-67
2023/11/21 05:44:41;;;;;;;31.30;16.00;;;;;;;0.86;50.55;99907.71;108273;1251;70317;-67
2023/11/21 05:47:08;;;;;;;36.50;17.50;;;;;;;0.95;50.45;99909.60;108229;1251;70677;-67
2023/11/21 05:49:35;;;;;;;39.40;18.00;;;;;;;1.12;50.19;99908.19;108301;1255;60708;-67
2023/11/21 05:52:02;;;;;;;39.40;18.70;;;;;;;1.04;50.48;99907.16;108323;1251;60135;-67
2023/11/21 05:54:29;;;;;;;54.30;20.60;;;;;;;0.97;50.80;99904.59;108205;1251;73137;-67
2023/11/21 05:56:56;;;;;;;74.00;25.00;;;;;;;0.87;50.91;99907.02;108305;1251;70333;-67
2023/11/21 05:59:23;;;;;;;42.00;18.30;;;;;;;0.93;51.11;99908.91;108296;1256;72760;-67
2023/11/21 06:01:50;;;;;;;36.90;17.30;;;;;;;1.10;50.83;99913.20;108183;1255;61707;-67
2023/11/21 06:04:18;;;;;;;40.70;18.50;;;;;;;1.17;50.68;99919.59;108244;1256;60514;-67
2023/11/21 06:06:45;;;;;;;46.50;20.90;;;;;;;1.30;50.66;99923.02;108163;1254;72635;-67
2023/11/21 06:09:12;;;;;;;40.60;19.20;;;;;;;1.39;50.59;99921.95;108144;1254;70290;-67
2023/11/21 06:11:39;;;;;;;47.90;21.60;;;;;;;1.47;50.43;99925.04;108158;1254;72507;-67
2023/11/21 06:14:07;;;;;;;47.00;21.50;;;;;;;1.55;50.56;99922.60;108153;1254;60666;-67
2023/11/21 06:16:34;;;;;;;42.90;21.30;;;;;;;1.61;50.73;99924.30;108184;1253;60492;-67
2023/11/21 06:19:01;;;;;;;43.90;21.50;;;;;;;1.78;50.53;99924.06;108167;1254;73960;-67
2023/11/21 06:21:28;;;;;;;41.70;19.50;;;;;;;1.83;50.63;99923.16;108186;1257;70140;-67
2023/11/21 06:23:56;;;;;;;43.80;20.00;;;;;;;1.93;50.70;99921.73;108150;1254;72515;-67
2023/11/21 06:26:24;;;;;;;44.80;19.60;;;;;;;1.88;51.23;99923.83;108152;1254;60911;-67
2023/11/21 06:28:51;;;;;;;48.90;21.90;;;;;;;2.09;51.13;99926.33;108073;1257;60425;-67
2023/11/21 06:31:18;;;;;;;39.80;19.80;;;;;;;2.21;51.25;99929.89;108164;1256;73875;-67
2023/11/21 06:33:44;;;;;;;40.80;20.70;;;;;;;2.45;51.16;99931.98;108167;1254;60351;-67
2023/11/21 06:36:14;;;;;;;42.90;20.30;;;;;;;2.72;50.84;99933.51;108114;1254;60418;-67
2023/11/21 06:38:40;;;;;;;50.20;23.20;;;;;;;2.89;50.65;99931.46;108151;1252;61897;-67
2023/11/21 06:41:08;;;;;;;49.20;22.90;;;;;;;3.00;50.60;99932.57;108169;1253;60420;-67
2023/11/21 06:43:35;;;;;;;48.80;23.10;;;;;;;3.14;50.41;99922.20;108181;1254;73741;-67
2023/11/21 06:46:04;;;;;;;50.20;22.10;;;;;;;3.32;50.45;99925.31;108194;1254;70393;-67
2023/11/21 06:48:31;;;;;;;59.30;26.70;;;;;;;3.55;50.30;99929.91;108197;1254;72752;-67
2023/11/21 06:50:57;;;;;;;58.70;27.10;;;;;;;3.74;50.22;99934.21;108149;1254;61759;-67
2023/11/21 06:53:24;;;;;;;59.90;27.40;;;;;;;3.83;50.25;99932.00;108167;1253;60511;-67
2023/11/21 06:55:51;;;;;;;59.60;30.70;;;;;;;3.99;49.88;99932.16;108135;1253;73589;-66
2023/11/21 06:58:18;;;;;;;57.90;30.40;;;;;;;3.99;50.07;99935.79;108128;1254;70103;-67
2023/11/21 07:00:46;;;;;;;65.80;33.90;;;;;;;4.24;50.18;99935.80;108232;1251;60460;-67
2023/11/21 07:03:13;;;;;;;65.50;34.00;;;;;;;4.47;49.79;99937.37;108265;1251;61944;-67
2023/11/21 07:05:40;;;;;;;80.30;38.40;;;;;;;4.67;49.65;99940.18;108239;1251;60379;-67
2023/11/21 07:08:07;;;;;;;65.30;32.20;;;;;;;4.81;49.27;99944.66;108251;1251;73745;-67
2023/11/21 07:10:36;;;;;;;56.80;28.80;;;;;;;4.92;48.89;99947.27;108240;1251;70880;-67
2023/11/21 07:13:03;;;;;;;59.20;29.40;;;;;;;4.96;49.03;99944.40;108277;1251;73647;-66
2023/11/21 07:15:29;;;;;;;69.90;33.00;;;;;;;5.15;48.65;99943.05;108285;1256;61184;-67
2023/11/21 07:17:56;;;;;;;61.80;32.40;;;;;;;5.27;48.77;99939.87;108238;1251;60421;-67
2023/11/21 07:20:23;;;;;;;78.40;34.20;;;;;;;5.32;48.84;99941.70;108134;1251;186498;-67
2023/11/21 07:24:04;;;;;;;92.80;40.70;;;;;;;3.56;53.47;99944.88;104687;1292;600642;-67
2023/11/21 07:26:31;;;;;;;111.10;44.80;;;;;;;4.68;50.86;99938.25;107268;1266;61980;-67
2023/11/21 07:28:57;;;;;;;143.90;52.50;;;;;;;4.95;50.83;99939.73;107317;1266;60635;-69
2023/11/21 07:31:24;;;;;;;133.50;54.30;;;;;;;5.41;50.75;99937.52;107297;1267;72525;-68
2023/11/21 07:33:52;;;;;;;139.30;57.10;;;;;;;5.79;50.79;99930.49;107315;1265;70143;-68
2023/11/21 07:36:21;;;;;;;148.90;60.70;;;;;;;6.15;49.77;99930.11;107230;1267;164465;-68
2023/11/21 07:38:48;;;;;;;135.90;59.40;;;;;;;6.55;49.20;99925.35;107439;1263;60966;-69
2023/11/21 07:41:15;;;;;;;159.10;67.10;;;;;;;7.21;48.55;99924.06;107443;1263;60437;-68
2023/11/21 07:43:56;;;;;;;186.80;88.60;;;;;;;7.92;48.38;99917.15;107464;1263;71061;-69
2023/11/21 07:46:24;;;;;;;156.50;71.00;;;;;;;8.61;47.44;99916.83;107431;1263;69329;-69
2023/11/21 07:48:53;;;;;;;132.90;61.40;;;;;;;9.18;45.68;99919.84;107448;1263;72675;-68
2023/11/21 07:51:19;;;;;;;113.60;52.00;;;;;;;9.54;43.99;99928.04;107973;1256;59583;-69
2023/11/21 07:53:46;;;;;;;98.30;48.10;;;;;;;10.02;43.23;99925.04;107979;1255;59969;-69
2023/11/21 07:56:13;;;;;;;105.10;49.40;;;;;;;10.64;42.25;99924.55;107923;1256;71600;-69
2023/11/21 07:58:40;;;;;;;111.60;50.40;;;;;;;11.19;41.44;99925.98;107823;1260;69034;-69
2023/11/21 08:01:07;;;;;;;99.10;48.20;;;;;;;11.85;40.45;99919.21;107621;1257;72992;-69
2023/11/21 08:03:34;;;;;;;86.30;43.00;;;;;;;12.49;38.94;99923.59;107726;1256;61065;-70
2023/11/21 08:06:03;;;;;;;81.60;40.70;;;;;;;12.99;37.81;99925.21;107728;1257;60141;-69
2023/11/21 08:08:32;;;;;;;96.50;43.20;;;;;;;13.59;36.95;99926.38;107755;1260;74371;-69
2023/11/21 08:11:01;;;;;;;84.80;39.70;;;;;;;14.08;35.11;99926.61;107824;1257;70326;-69
2023/11/21 08:13:30;;;;;;;66.90;33.60;;;;;;;14.32;34.66;99925.09;107765;1257;72759;-69
2023/11/21 08:16:01;;;;;;;64.70;35.70;;;;;;;14.27;33.35;99929.77;107792;1258;59657;-69
2023/11/21 08:18:29;;;;;;;78.50;37.70;;;;;;;13.81;33.03;99935.66;107723;1257;59679;-68
2023/11/21 08:20:56;;;;;;;88.60;43.10;;;;;;;13.47;33.47;99940.27;108162;1254;72923;-68
2023/11/21 08:23:26;;;;;;;75.80;39.60;;;;;;;13.14;33.87;99939.59;108214;1254;71530;-68
2023/11/21 08:25:53;;;;;;;93.50;46.50;;;;;;;12.68;33.84;99939.09;108077;1253;72520;-68
2023/11/21 08:28:22;;;;;;;99.00;50.60;;;;;;;12.13;34.52;99936.60;108176;1254;59548;-68
2023/11/21 08:30:48;;;;;;;108.50;52.20;;;;;;;11.77;35.42;99939.79;108007;1253;60018;-69
2023/11/21 08:33:15;;;;;;;131.20;63.30;;;;;;;11.44;35.92;99949.52;108137;1253;73025;-68
2023/11/21 08:35:42;;;;;;;119.00;55.60;;;;;;;10.91;36.38;99953.67;108183;1253;70002;-68
2023/11/21 08:38:10;;;;;;;114.70;53.80;;;;;;;10.75;36.85;99947.13;108000;1254;72379;-68
2023/11/21 08:40:36;;;;;;;108.40;50.80;;;;;;;10.68;37.34;99946.70;108149;1253;59540;-68
2023/11/21 08:43:04;;;;;;;90.20;46.30;;;;;;;10.42;37.45;99951.61;108179;1253;59507;-68
2023/11/21 08:45:33;;;;;;;63.30;31.90;;;;;;;10.14;38.06;99955.61;108185;1254;74128;-68
2023/11/21 08:48:01;;;;;;;46.20;23.60;;;;;;;9.99;38.39;99954.42;108167;1253;70305;-69
2023/11/21 08:50:28;;;;;;;38.60;19.60;;;;;;;9.86;38.64;99951.73;108226;1254;71104;-69
2023/11/21 08:52:55;;;;;;;38.30;18.50;;;;;;;9.51;39.19;99957.02;107911;1254;59628;-69
2023/11/21 08:55:22;;;;;;;31.50;17.00;;;;;;;8.91;39.94;99964.34;108199;1254;60263;-68
2023/11/21 08:57:49;;;;;;;31.30;18.00;;;;;;;8.54;40.41;99961.85;108204;1254;72934;-68
2023/11/21 09:00:16;;;;;;;31.30;17.50;;;;;;;8.49;40.59;99960.77;108206;1254;71432;-67
2023/11/21 09:02:43;;;;;;;34.10;18.10;;;;;;;8.49;40.71;99957.27;108172;1253;72787;-68
2023/11/21 09:05:11;;;;;;;34.30;18.00;;;;;;;8.60;40.75;99957.81;108208;1252;61255;-67
2023/11/21 09:07:39;;;;;;;30.10;16.20;;;;;;;8.52;41.07;99956.48;108187;1254;59497;-69
2023/11/21 09:10:07;;;;;;;28.20;16.40;;;;;;;8.19;40.65;99955.71;108203;1253;71810;-67
2023/11/21 09:12:40;;;;;;;38.20;18.10;;;;;;;8.01;41.13;99961.67;108167;1254;70325;-68
2023/11/21 09:15:09;;;;;;;33.40;17.70;;;;;;;7.86;41.49;99957.73;108154;1253;72977;-67
2023/11/21 09:17:36;;;;;;;22.30;12.80;;;;;;;7.69;41.39;99956.46;108156;1253;60973;-68
2023/11/21 09:20:05;;;;;;;28.20;15.30;;;;;;;7.48;41.77;99961.05;108205;1253;60291;-68
2023/11/21 09:22:32;;;;;;;27.40;16.00;;;;;;;7.33;41.99;99959.36;108169;1254;72972;-68
2023/11/21 09:24:59;;;;;;;26.90;16.10;;;;;;;7.30;42.74;99963.43;108156;1254;70351;-67
2023/11/21 09:27:26;;;;;;;30.90;16.00;;;;;;;7.40;42.45;99958.48;108216;1254;72696;-67
2023/11/21 09:29:53;;;;;;;27.80;16.50;;;;;;;7.54;42.37;99963.35;108169;1253;60921;-67
2023/11/21 09:32:21;;;;;;;33.60;15.90;;;;;;;7.54;42.24;99961.24;108150;1254;60293;-68
2023/11/21 09:34:51;;;;;;;27.40;16.20;;;;;;;7.53;42.01;99960.04;108163;1254;71870;-68
2023/11/21 09:37:18;;;;;;;30.00;16.60;;;;;;;7.46;42.86;99957.98;108194;1254;69119;-68
2023/11/21 09:39:47;;;;;;;36.10;16.20;;;;;;;7.49;42.99;99960.86;108178;1253;71365;-68
2023/11/21 09:42:19;;;;;;;29.80;16.70;;;;;;;7.35;42.89;99963.14;108161;1256;59548;-68
2023/11/21 09:45:01;;;;;;;28.10;14.80;;;;;;;7.34;43.17;99958.63;108159;1253;60511;-67
2023/11/21 09:47:28;;;;;;;30.20;15.70;;;;;;;7.25;42.78;99958.34;108184;1254;73075;-68
2023/11/21 09:49:55;;;;;;;24.30;15.50;;;;;;;7.11;43.06;99956.45;108214;1256;70220;-68
2023/11/21 09:52:25;;;;;;;26.70;14.50;;;;;;;7.23;43.35;99952.98;108114;1258;72497;-68
2023/11/21 09:54:53;;;;;;;23.10;12.00;;;;;;;7.24;42.75;99950.69;108034;1253;60092;-68
2023/11/21 09:57:21;;;;;;;25.00;14.30;;;;;;;7.18;42.71;99953.30;108185;1253;60056;-68
2023/11/21 09:59:51;;;;;;;25.20;14.50;;;;;;;7.09;42.74;99944.81;108254;1256;72936;-67
2023/11/21 10:02:19;;;;;;;26.30;13.80;;;;;;;7.21;42.91;99935.05;108234;1253;69110;-68
2023/11/21 10:04:46;;;;;;;26.70;14.30;;;;;;;7.45;42.93;99931.25;108091;1254;72526;-67
2023/11/21 10:07:15;;;;;;;27.00;14.80;;;;;;;7.44;42.50;99934.45;108204;1254;61178;-67
2023/11/21 10:09:42;;;;;;;25.70;14.70;;;;;;;7.20;42.85;99930.53;108077;1253;59586;-67
2023/11/21 10:12:08;;;;;;;25.80;14.20;;;;;;;7.27;42.99;99927.38;107953;1254;72815;-68
2023/11/21 10:14:37;;;;;;;21.10;12.00;;;;;;;7.16;42.64;99937.97;107979;1254;69258;-68
2023/11/21 10:17:03;;;;;;;23.40;14.40;;;;;;;7.26;42.51;99940.70;108256;1254;71501;-68
2023/11/21 10:19:32;;;;;;;24.90;13.20;;;;;;;7.23;42.28;99940.77;107943;1254;60257;-68
2023/11/21 10:21:59;;;;;;;21.80;12.20;;;;;;;7.15;42.36;99951.10;108201;1254;61272;-69
2023/11/21 10:24:27;;;;;;;25.30;12.60;;;;;;;7.16;42.57;99947.92;108197;1253;73202;-68
2023/11/21 10:26:57;;;;;;;21.30;12.80;;;;;;;7.22;42.46;99938.34;108180;1253;70320;-68
2023/11/21 10:29:26;;;;;;;26.50;14.80;;;;;;;7.39;42.37;99940.02;108210;1255;72385;-68
2023/11/21 10:31:54;;;;;;;24.30;13.20;;;;;;;7.33;42.68;99942.59;108202;1253;61062;-68
2023/11/21 10:34:21;;;;;;;25.40;13.60;;;;;;;7.42;42.73;99941.82;108187;1252;59628;-68
2023/11/21 10:36:48;;;;;;;26.60;14.60;;;;;;;7.59;42.78;99938.05;108193;1253;72983;-68
2023/11/21 10:39:23;;;;;;;27.80;15.50;;;;;;;7.73;42.33;99940.09;108190;1253;69818;-68
2023/11/21 10:41:50;;;;;;;26.10;13.30;;;;;;;7.73;41.77;99941.13;108140;1254;72094;-67
2023/11/21 10:44:21;;;;;;;23.20;13.00;;;;;;;7.70;41.62;99950.65;108089;1253;60773;-68
2023/11/21 10:46:56;;;;;;;21.30;12.30;;;;;;;7.75;41.71;99951.03;108232;1256;59579;-68
2023/11/21 10:49:26;;;;;;;21.50;12.00;;;;;;;7.71;41.24;99953.44;108200;1253;73094;-68
2023/11/21 10:51:54;;;;;;;19.70;11.40;;;;;;;7.55;41.79;99957.71;108139;1253;69416;-68
2023/11/21 10:54:20;;;;;;;23.10;12.80;;;;;;;7.39;41.74;99957.63;108088;1256;73453;-68
2023/11/21 10:56:58;;;;;;;21.30;12.10;;;;;;;7.34;41.99;99961.27;108113;1253;59844;-68
2023/11/21 10:59:29;;;;;;;23.30;13.20;;;;;;;7.19;42.33;99966.36;108137;1254;59127;-68
2023/11/21 11:02:02;;;;;;;26.10;13.60;;;;;;;7.12;42.39;99965.15;108121;1253;71861;-68
2023/11/21 11:04:29;;;;;;;24.20;13.50;;;;;;;6.97;42.81;99963.43;108169;1253;69497;-67
2023/11/21 11:07:03;;;;;;;25.30;15.00;;;;;;;6.82;42.83;99965.90;108032;1254;72666;-69
2023/11/21 11:09:35;;;;;;;26.70;13.90;;;;;;;6.92;42.89;99968.77;108135;1253;61018;-67
2023/11/21 11:12:04;;;;;;;25.30;15.70;;;;;;;6.99;42.45;99974.02;107996;1254;60442;-68
2023/11/21 11:14:32;;;;;;;26.60;14.50;;;;;;;6.83;42.75;99978.59;108104;1253;73123;-68
2023/11/21 11:17:00;;;;;;;29.70;15.10;;;;;;;6.70;43.31;99974.91;108022;1254;71461;-67
2023/11/21 11:19:27;;;;;;;27.90;14.90;;;;;;;6.75;43.17;99973.90;108047;1253;72414;-67
2023/11/21 11:22:07;;;;;;;28.00;15.60;;;;;;;6.51;43.63;99976.02;108123;1253;61245;-68